createdAt,value
2017-11-29T00:02:02.464Z,6.40
2017-11-29T00:04:30.146Z,6.30
2017-11-29T00:06:57.804Z,6.40
2017-11-29T00:09:33.476Z,6.30
2017-11-29T00:12:01.102Z,6.30
2017-11-29T00:14:28.878Z,6.30
2017-11-29T00:16:56.389Z,6.30
2017-11-29T00:19:24.224Z,6.30
2017-11-29T00:21:53.433Z,6.30
2017-11-29T00:24:21.297Z,6.30
2017-11-29T00:26:48.816Z,6.20
2017-11-29T00:29:16.324Z,6.20
2017-11-29T00:31:43.834Z,6.20
2017-11-29T00:34:11.348Z,6.20
2017-11-29T00:36:38.875Z,6.30
2017-11-29T00:39:06.429Z,6.30
2017-11-29T00:41:33.947Z,6.30
2017-11-29T00:44:01.504Z,6.30
2017-11-29T00:46:29.800Z,6.20
2017-11-29T00:48:57.361Z,6.20
2017-11-29T00:51:24.876Z,6.20
2017-11-29T00:53:52.432Z,6.20
2017-11-29T00:56:22.714Z,6.30
2017-11-29T00:58:50.325Z,6.30
2017-11-29T01:01:17.977Z,6.20
2017-11-29T01:03:45.528Z,6.20
2017-11-29T01:06:13.177Z,6.20
2017-11-29T01:08:42.525Z,6.20
2017-11-29T01:11:10.156Z,6.20
2017-11-29T01:13:37.690Z,6.20
2017-11-29T01:16:05.202Z,6.30
2017-11-29T01:18:32.716Z,6.30
2017-11-29T01:21:02.926Z,6.30
2017-11-29T01:23:30.571Z,6.20
2017-11-29T01:25:58.313Z,6.20
2017-11-29T01:28:27.146Z,6.20
2017-11-29T01:30:54.695Z,6.30
2017-11-29T01:33:22.337Z,6.30
2017-11-29T01:35:49.890Z,6.30
2017-11-29T01:38:17.417Z,6.30
2017-11-29T01:40:45.020Z,6.30
2017-11-29T01:43:12.570Z,6.40
2017-11-29T01:45:40.128Z,6.40
2017-11-29T01:48:07.620Z,6.40
2017-11-29T01:50:35.248Z,6.50
2017-11-29T01:53:02.954Z,6.50
2017-11-29T01:55:30.590Z,6.50
2017-11-29T01:57:58.101Z,6.40
2017-11-29T02:00:26.383Z,6.40
2017-11-29T02:02:53.992Z,6.40
2017-11-29T02:05:21.584Z,6.30
2017-11-29T02:07:49.063Z,6.30
2017-11-29T02:10:16.601Z,6.30
2017-11-29T02:12:44.878Z,6.30
2017-11-29T02:15:12.437Z,6.30
2017-11-29T02:17:40.012Z,6.40
2017-11-29T02:20:07.596Z,6.40
2017-11-29T02:22:35.131Z,6.40
2017-11-29T02:25:02.687Z,6.40
2017-11-29T02:27:30.264Z,6.40
2017-11-29T02:29:57.838Z,6.40
2017-11-29T02:32:25.353Z,6.40
2017-11-29T02:34:53.669Z,6.40
2017-11-29T02:37:21.244Z,6.30
2017-11-29T02:40:00.565Z,6.30
2017-11-29T02:42:38.791Z,6.40
2017-11-29T02:45:06.299Z,6.40
2017-11-29T02:47:34.597Z,6.50
2017-11-29T02:50:02.132Z,6.50
2017-11-29T02:52:29.751Z,6.50
2017-11-29T02:54:57.325Z,6.50
2017-11-29T02:57:24.865Z,6.50
2017-11-29T02:59:52.369Z,6.50
2017-11-29T03:02:19.982Z,6.50
2017-11-29T03:04:47.500Z,6.50
2017-11-29T03:07:15.004Z,6.50
2017-11-29T03:09:42.498Z,6.50
2017-11-29T03:12:09.974Z,6.40
2017-11-29T03:14:37.451Z,6.40
2017-11-29T03:17:04.947Z,6.40
2017-11-29T03:19:32.452Z,6.40
2017-11-29T03:21:59.965Z,6.40
2017-11-29T03:24:27.510Z,6.30
2017-11-29T03:26:55.030Z,6.30
2017-11-29T03:29:23.390Z,6.30
2017-11-29T03:31:50.925Z,6.30
2017-11-29T03:34:18.476Z,6.30
2017-11-29T03:36:45.993Z,6.40
2017-11-29T03:39:13.589Z,6.30
2017-11-29T03:41:41.881Z,6.30
2017-11-29T03:44:09.401Z,6.30
2017-11-29T03:46:36.964Z,6.30
2017-11-29T03:49:04.448Z,6.30
2017-11-29T03:51:32.009Z,6.40
2017-11-29T03:53:59.548Z,6.40
2017-11-29T03:56:27.146Z,6.30
2017-11-29T03:58:54.639Z,6.40
2017-11-29T04:01:22.225Z,6.40
2017-11-29T04:03:49.720Z,6.50
2017-11-29T04:06:17.997Z,6.50
2017-11-29T04:08:45.504Z,6.50
2017-11-29T04:11:13.112Z,6.50
2017-11-29T04:13:40.757Z,6.50
2017-11-29T04:16:08.375Z,6.50
2017-11-29T04:18:36.115Z,6.40
2017-11-29T04:21:03.742Z,6.50
2017-11-29T04:23:31.441Z,6.50
2017-11-29T04:25:59.035Z,6.50
2017-11-29T04:28:26.583Z,6.50
2017-11-29T04:30:54.089Z,6.40
2017-11-29T04:33:24.891Z,6.50
2017-11-29T04:35:55.115Z,6.50
2017-11-29T04:38:23.043Z,6.50
2017-11-29T04:40:56.847Z,6.50
2017-11-29T04:43:25.648Z,6.50
2017-11-29T04:45:53.280Z,6.50
2017-11-29T04:48:20.820Z,6.50
2017-11-29T04:50:48.347Z,6.50
2017-11-29T04:53:16.788Z,6.50
2017-11-29T04:55:44.341Z,6.50
2017-11-29T04:58:11.901Z,6.50
2017-11-29T05:00:39.407Z,6.50
2017-11-29T05:03:07.082Z,6.50
2017-11-29T05:05:34.676Z,6.40
2017-11-29T05:08:02.289Z,6.50
2017-11-29T05:10:29.889Z,6.50
2017-11-29T05:12:57.400Z,6.50
2017-11-29T05:15:24.965Z,6.50
2017-11-29T05:17:52.537Z,6.40
2017-11-29T05:20:20.047Z,6.40
2017-11-29T05:22:48.399Z,6.30
2017-11-29T05:25:15.914Z,6.30
2017-11-29T05:27:43.572Z,6.30
2017-11-29T05:30:11.120Z,6.30
2017-11-29T05:32:38.612Z,6.30
2017-11-29T05:35:06.097Z,6.30
2017-11-29T05:37:33.581Z,6.30
2017-11-29T05:40:01.055Z,6.30
2017-11-29T05:42:28.573Z,6.30
2017-11-29T05:44:56.832Z,6.40
2017-11-29T05:47:24.359Z,6.40
2017-11-29T05:49:51.882Z,6.40
2017-11-29T05:52:19.443Z,6.40
2017-11-29T05:54:47.680Z,6.50
2017-11-29T05:57:15.147Z,6.40
2017-11-29T05:59:43.421Z,6.50
2017-11-29T06:02:10.889Z,6.50
2017-11-29T06:04:38.365Z,6.40
2017-11-29T06:07:05.854Z,6.30
2017-11-29T06:09:33.348Z,6.40
2017-11-29T06:12:00.823Z,6.30
2017-11-29T06:14:29.091Z,6.40
2017-11-29T06:16:56.548Z,6.40
2017-11-29T06:19:24.776Z,6.40
2017-11-29T06:21:52.238Z,6.40
2017-11-29T06:24:19.729Z,6.40
2017-11-29T06:26:47.195Z,6.40
2017-11-29T06:29:14.875Z,6.30
2017-11-29T06:31:42.341Z,6.20
2017-11-29T06:34:09.809Z,6.20
2017-11-29T06:36:37.280Z,6.20
2017-11-29T06:39:04.808Z,6.20
2017-11-29T06:41:32.257Z,6.10
2017-11-29T06:44:00.520Z,6.10
2017-11-29T06:46:28.751Z,6.10
2017-11-29T06:48:56.231Z,6.10
2017-11-29T06:51:23.705Z,6.10
2017-11-29T06:53:51.169Z,6.20
2017-11-29T06:56:18.998Z,6.20
2017-11-29T06:58:46.457Z,6.20
2017-11-29T07:01:13.935Z,6.20
2017-11-29T07:03:41.395Z,6.10
2017-11-29T07:06:08.860Z,6.10
2017-11-29T07:08:36.311Z,6.00
2017-11-29T07:11:03.777Z,6.00
2017-11-29T07:13:32.020Z,6.00
2017-11-29T07:15:59.480Z,6.00
2017-11-29T07:18:26.963Z,6.00
2017-11-29T07:20:55.189Z,6.10
2017-11-29T07:23:22.651Z,6.10
2017-11-29T07:25:50.132Z,6.10
2017-11-29T07:28:17.601Z,6.20
2017-11-29T07:30:45.065Z,6.20
2017-11-29T07:33:12.547Z,6.30
2017-11-29T07:35:40.043Z,6.20
2017-11-29T07:38:07.496Z,6.20
2017-11-29T07:40:34.967Z,6.20
2017-11-29T07:43:02.421Z,6.20
2017-11-29T07:45:29.882Z,6.30
2017-11-29T07:47:57.342Z,6.20
2017-11-29T07:50:24.815Z,6.20
2017-11-29T07:52:52.275Z,6.20
2017-11-29T07:55:19.720Z,6.10
2017-11-29T07:57:47.175Z,6.10
2017-11-29T08:00:14.655Z,6.10
2017-11-29T08:02:42.935Z,6.20
2017-11-29T08:05:10.383Z,6.20
2017-11-29T08:07:37.855Z,6.30
2017-11-29T08:10:05.317Z,6.30
2017-11-29T08:12:32.801Z,6.30
2017-11-29T08:15:00.632Z,6.30
2017-11-29T08:17:28.860Z,6.30
2017-11-29T08:19:56.312Z,6.30
2017-11-29T08:22:23.772Z,6.40
2017-11-29T08:24:51.235Z,6.20
2017-11-29T08:27:19.014Z,6.30
2017-11-29T08:29:46.560Z,6.30
2017-11-29T08:32:14.025Z,6.20
2017-11-29T08:34:43.389Z,6.30
2017-11-29T08:37:10.854Z,6.30
2017-11-29T08:39:38.308Z,6.40
2017-11-29T08:42:05.763Z,6.40
2017-11-29T08:44:33.237Z,6.40
2017-11-29T08:47:00.687Z,6.40
2017-11-29T08:49:28.141Z,6.30
2017-11-29T08:51:55.596Z,6.40
2017-11-29T08:54:23.053Z,6.40
2017-11-29T08:56:50.504Z,6.40
2017-11-29T08:59:17.952Z,6.40
2017-11-29T09:01:45.418Z,6.40
2017-11-29T09:04:12.874Z,6.40
2017-11-29T09:06:40.367Z,6.40
2017-11-29T09:09:07.827Z,6.30
2017-11-29T09:11:35.275Z,6.30
2017-11-29T09:14:02.732Z,6.30
2017-11-29T09:16:30.235Z,6.20
2017-11-29T09:18:57.688Z,6.20
2017-11-29T09:21:25.136Z,6.20
2017-11-29T09:23:53.410Z,6.30
2017-11-29T09:26:21.664Z,6.40
2017-11-29T09:28:49.148Z,6.30
2017-11-29T09:31:16.605Z,6.40
2017-11-29T09:33:44.108Z,6.50
2017-11-29T09:36:11.576Z,6.50
2017-11-29T09:38:39.028Z,6.60
2017-11-29T09:41:06.493Z,6.60
2017-11-29T09:43:33.940Z,6.60
2017-11-29T09:46:01.432Z,6.70
2017-11-29T09:48:29.667Z,6.70
2017-11-29T09:50:57.134Z,6.70
2017-11-29T09:53:24.641Z,6.70
2017-11-29T09:55:52.103Z,6.80
2017-11-29T09:58:19.555Z,6.80
2017-11-29T10:00:47.008Z,6.90
2017-11-29T10:03:14.531Z,6.90
2017-11-29T10:05:42.021Z,7.00
2017-11-29T10:08:09.541Z,7.00
2017-11-29T10:10:37.943Z,7.00
2017-11-29T10:13:05.480Z,7.00
2017-11-29T10:15:32.956Z,7.00
2017-11-29T10:18:01.179Z,7.00
2017-11-29T10:20:28.655Z,7.00
2017-11-29T10:22:56.108Z,6.90
2017-11-29T10:25:23.605Z,6.90
2017-11-29T10:27:51.847Z,7.00
2017-11-29T10:30:19.353Z,7.00
2017-11-29T10:32:46.917Z,6.90
2017-11-29T10:35:14.399Z,6.90
2017-11-29T10:37:41.903Z,6.80
2017-11-29T10:40:10.163Z,6.80
2017-11-29T10:42:37.611Z,6.80
2017-11-29T10:45:05.126Z,6.70
2017-11-29T10:47:32.580Z,6.70
2017-11-29T10:50:00.066Z,6.60
2017-11-29T10:52:27.546Z,6.60
2017-11-29T10:54:55.054Z,6.60
2017-11-29T10:57:22.525Z,6.60
2017-11-29T10:59:50.009Z,6.50
2017-11-29T11:02:17.500Z,6.60
2017-11-29T11:04:45.038Z,6.60
2017-11-29T11:07:12.500Z,6.60
2017-11-29T11:09:39.951Z,6.50
2017-11-29T11:12:07.421Z,6.60
2017-11-29T11:14:34.886Z,6.60
2017-11-29T11:17:02.361Z,6.60
2017-11-29T11:19:30.597Z,6.60
2017-11-29T11:21:58.056Z,6.60
2017-11-29T11:24:25.525Z,6.60
2017-11-29T11:26:52.979Z,6.50
2017-11-29T11:29:20.443Z,6.60
2017-11-29T11:31:47.883Z,6.50
2017-11-29T11:34:15.336Z,6.60
2017-11-29T11:36:42.833Z,6.60
2017-11-29T11:39:10.296Z,6.60
2017-11-29T11:41:37.750Z,6.60
2017-11-29T11:44:05.217Z,6.70
2017-11-29T11:46:32.795Z,6.80
2017-11-29T11:49:00.277Z,6.80
2017-11-29T11:51:27.783Z,6.90
2017-11-29T11:53:56.038Z,6.90
2017-11-29T11:56:23.523Z,6.90
2017-11-29T11:58:51.031Z,6.90
2017-11-29T12:01:18.492Z,6.90
2017-11-29T12:03:45.952Z,6.90
2017-11-29T12:06:13.403Z,6.90
2017-11-29T12:08:40.856Z,6.90
2017-11-29T12:11:08.311Z,6.90
2017-11-29T12:13:35.777Z,7.00
2017-11-29T12:16:03.241Z,7.00
2017-11-29T12:18:30.709Z,7.00
2017-11-29T12:20:58.158Z,7.10
2017-11-29T12:23:25.615Z,7.00
2017-11-29T12:25:53.067Z,7.00
2017-11-29T12:28:21.204Z,7.00
2017-11-29T12:30:48.659Z,7.00
2017-11-29T12:33:16.124Z,7.00
2017-11-29T12:35:43.594Z,7.00
2017-11-29T12:38:11.071Z,7.10
2017-11-29T12:40:38.532Z,7.10
2017-11-29T12:43:05.989Z,7.20
2017-11-29T12:45:33.443Z,7.30
2017-11-29T12:48:12.705Z,7.20
2017-11-29T12:50:51.787Z,7.30
2017-11-29T12:53:19.269Z,7.20
2017-11-29T12:55:46.750Z,7.20
2017-11-29T12:58:14.204Z,7.10
2017-11-29T13:00:41.699Z,7.10
2017-11-29T13:03:09.176Z,7.10
2017-11-29T13:05:36.658Z,7.20
2017-11-29T13:08:04.143Z,7.20
2017-11-29T13:10:31.689Z,7.20
2017-11-29T13:12:59.181Z,7.20
2017-11-29T13:15:26.690Z,7.20
2017-11-29T13:17:54.149Z,7.30
2017-11-29T13:20:22.437Z,7.20
2017-11-29T13:22:49.944Z,7.20
2017-11-29T13:25:17.463Z,7.20
2017-11-29T13:27:44.979Z,7.10
2017-11-29T13:30:12.440Z,7.20
2017-11-29T13:32:39.912Z,7.20
2017-11-29T13:35:08.152Z,7.10
2017-11-29T13:37:35.670Z,7.10
2017-11-29T13:40:03.141Z,7.10
2017-11-29T13:42:30.620Z,7.20
2017-11-29T13:44:58.091Z,7.20
2017-11-29T13:47:25.584Z,7.20
2017-11-29T13:49:53.097Z,7.20
2017-11-29T13:52:20.590Z,7.10
2017-11-29T13:54:48.827Z,6.90
2017-11-29T13:57:16.309Z,6.90
2017-11-29T13:59:43.775Z,6.90
2017-11-29T14:02:11.244Z,6.90
2017-11-29T14:04:39.472Z,6.90
2017-11-29T14:07:06.935Z,6.90
2017-11-29T14:09:34.411Z,6.90
2017-11-29T14:12:01.876Z,6.90
2017-11-29T14:14:29.323Z,6.90
2017-11-29T14:16:56.797Z,6.80
2017-11-29T14:19:24.255Z,6.80
2017-11-29T14:21:52.719Z,6.80
2017-11-29T14:24:20.176Z,6.80
2017-11-29T14:26:47.635Z,6.80
2017-11-29T14:29:15.099Z,6.90
2017-11-29T14:31:42.551Z,6.90
2017-11-29T14:34:10.007Z,6.90
2017-11-29T14:36:37.456Z,7.00
2017-11-29T14:39:04.924Z,7.00
2017-11-29T14:41:32.379Z,6.90
2017-11-29T14:43:59.830Z,6.90
2017-11-29T14:46:27.283Z,6.90
2017-11-29T14:48:54.749Z,7.00
2017-11-29T14:51:22.207Z,7.00
2017-11-29T14:53:49.659Z,6.90
2017-11-29T14:56:17.116Z,7.00
2017-11-29T14:58:44.599Z,7.00
2017-11-29T15:01:12.055Z,7.00
2017-11-29T15:03:40.304Z,7.00
2017-11-29T15:06:07.767Z,7.00
2017-11-29T15:08:35.223Z,7.00
2017-11-29T15:11:02.687Z,7.00
2017-11-29T15:13:30.134Z,7.00
2017-11-29T15:15:57.591Z,7.00
2017-11-29T15:18:25.051Z,6.90
2017-11-29T15:20:52.506Z,6.80
2017-11-29T15:23:20.783Z,6.80
2017-11-29T15:25:48.244Z,6.80
2017-11-29T15:28:15.717Z,6.80
2017-11-29T15:30:43.173Z,6.70
2017-11-29T15:33:10.646Z,6.70
2017-11-29T15:35:38.099Z,6.70
2017-11-29T15:38:05.539Z,6.70
2017-11-29T15:40:33.014Z,6.60
2017-11-29T15:43:00.478Z,6.60
2017-11-29T15:45:27.919Z,6.50
2017-11-29T15:47:55.380Z,6.50
2017-11-29T15:50:22.831Z,6.40
2017-11-29T15:52:50.282Z,6.30
2017-11-29T15:55:17.740Z,6.30
2017-11-29T15:57:45.951Z,6.30
2017-11-29T16:00:13.414Z,6.30
2017-11-29T16:02:40.858Z,6.30
2017-11-29T16:05:08.311Z,6.30
2017-11-29T16:07:35.779Z,6.30
2017-11-29T16:10:03.243Z,6.20
2017-11-29T16:12:30.699Z,6.20
2017-11-29T16:14:58.166Z,6.20
2017-11-29T16:17:25.622Z,6.20
2017-11-29T16:19:53.096Z,6.20
2017-11-29T16:22:20.555Z,6.20
2017-11-29T16:24:48.024Z,6.10
2017-11-29T16:27:16.298Z,6.10
2017-11-29T16:29:44.531Z,6.10
2017-11-29T16:32:12.008Z,6.10
2017-11-29T16:34:39.464Z,6.20
2017-11-29T16:37:06.924Z,6.10
2017-11-29T16:39:34.401Z,6.10
2017-11-29T16:42:01.845Z,6.00
2017-11-29T16:44:29.315Z,5.90
2017-11-29T16:46:56.775Z,5.80
2017-11-29T16:49:24.236Z,5.70
2017-11-29T16:51:51.716Z,5.80
2017-11-29T16:54:19.281Z,5.80
2017-11-29T16:56:46.784Z,5.80
2017-11-29T16:59:14.284Z,5.70
2017-11-29T17:01:41.780Z,5.70
2017-11-29T17:04:09.263Z,5.80
2017-11-29T17:06:36.753Z,5.70
2017-11-29T17:09:04.294Z,5.70
2017-11-29T17:11:31.871Z,5.70
2017-11-29T17:13:59.323Z,5.80
2017-11-29T17:16:26.827Z,5.70
2017-11-29T17:18:54.347Z,5.70
2017-11-29T17:21:21.898Z,5.70
2017-11-29T17:23:49.375Z,5.70
2017-11-29T17:26:16.851Z,5.60
2017-11-29T17:28:44.365Z,5.70
2017-11-29T17:31:11.916Z,5.70
2017-11-29T17:33:39.460Z,5.70
2017-11-29T17:36:07.064Z,5.70
2017-11-29T17:38:34.590Z,5.60
2017-11-29T17:41:02.862Z,5.50
2017-11-29T17:43:30.334Z,5.50
2017-11-29T17:45:57.900Z,5.60
2017-11-29T17:48:25.442Z,5.60
2017-11-29T17:50:53.004Z,5.60
2017-11-29T17:53:20.514Z,5.60
2017-11-29T17:55:47.981Z,5.60
2017-11-29T17:58:15.472Z,5.60
2017-11-29T18:00:54.256Z,5.60
2017-11-29T18:03:22.755Z,5.50
2017-11-29T18:05:50.215Z,5.60
2017-11-29T18:08:17.675Z,5.60
2017-11-29T18:10:45.128Z,5.60
2017-11-29T18:13:12.575Z,5.60
2017-11-29T18:15:40.470Z,5.60
2017-11-29T18:18:07.936Z,5.60
2017-11-29T18:20:36.162Z,5.70
2017-11-29T18:23:03.624Z,5.70
2017-11-29T18:25:31.121Z,5.70
2017-11-29T18:27:58.631Z,5.70
2017-11-29T18:30:26.107Z,5.70
2017-11-29T18:32:53.577Z,5.70
2017-11-29T18:35:21.079Z,5.80
2017-11-29T18:37:48.539Z,5.80
2017-11-29T18:40:16.013Z,5.80
2017-11-29T18:42:43.474Z,5.80
2017-11-29T18:45:10.967Z,5.80
2017-11-29T18:47:38.433Z,5.80
2017-11-29T18:50:06.300Z,5.80
2017-11-29T18:52:33.753Z,5.80
2017-11-29T18:55:01.228Z,5.80
2017-11-29T18:57:28.728Z,5.70
2017-11-29T18:59:56.404Z,5.70
2017-11-29T19:02:23.960Z,5.60
2017-11-29T19:04:51.465Z,5.60
2017-11-29T19:07:19.017Z,5.60
2017-11-29T19:09:46.617Z,5.60
2017-11-29T19:12:14.119Z,5.60
2017-11-29T19:14:41.588Z,5.60
2017-11-29T19:17:09.112Z,5.50
2017-11-29T19:19:36.817Z,5.60
2017-11-29T19:22:05.377Z,5.50
2017-11-29T19:24:32.999Z,5.60
2017-11-29T19:27:00.504Z,5.60
2017-11-29T19:29:28.009Z,5.60
2017-11-29T19:31:55.501Z,5.70
2017-11-29T19:34:22.971Z,5.70
2017-11-29T19:36:53.696Z,5.70
2017-11-29T19:39:21.185Z,5.60
2017-11-29T19:41:48.758Z,5.60
2017-11-29T19:44:17.204Z,5.60
2017-11-29T19:46:46.793Z,5.60
2017-11-29T19:49:14.292Z,5.60
2017-11-29T19:51:41.788Z,5.70
2017-11-29T19:54:11.279Z,5.70
2017-11-29T19:56:38.768Z,5.70
2017-11-29T19:59:06.341Z,5.80
2017-11-29T20:01:33.917Z,5.80
2017-11-29T20:04:04.592Z,5.80
2017-11-29T20:06:33.124Z,5.80
2017-11-29T20:09:00.835Z,5.80
2017-11-29T20:11:29.398Z,5.90
2017-11-29T20:13:56.930Z,5.90
2017-11-29T20:16:24.427Z,5.80
2017-11-29T20:18:51.900Z,5.80
2017-11-29T20:21:19.560Z,5.80
2017-11-29T20:23:48.110Z,5.80
2017-11-29T20:26:15.729Z,5.80
2017-11-29T20:28:43.324Z,5.70
2017-11-29T20:31:11.641Z,5.70
2017-11-29T20:36:31.792Z,5.70
2017-11-29T20:39:09.360Z,5.60
2017-11-29T20:41:42.233Z,5.60
2017-11-29T20:44:10.451Z,5.60
2017-11-29T20:46:38.370Z,5.60
2017-11-29T20:49:05.944Z,5.70
2017-11-29T20:51:33.464Z,5.60
2017-11-29T20:54:01.046Z,5.60
2017-11-29T20:56:28.580Z,5.70
2017-11-29T20:58:56.205Z,5.70
2017-11-29T21:01:23.785Z,5.70
2017-11-29T21:03:58.709Z,5.70
2017-11-29T21:06:26.285Z,5.60
2017-11-29T21:08:57.376Z,5.70
2017-11-29T21:11:27.175Z,5.60
2017-11-29T21:13:56.224Z,5.60
2017-11-29T21:16:28.033Z,5.70
2017-11-29T21:19:01.597Z,5.70
2017-11-29T21:21:39.347Z,5.70
2017-11-29T21:24:06.816Z,5.70
2017-11-29T21:26:34.537Z,5.60
2017-11-29T21:29:02.012Z,5.50
2017-11-29T21:31:29.528Z,5.50
2017-11-29T21:33:56.988Z,5.50
2017-11-29T21:36:24.460Z,5.50
2017-11-29T21:38:51.954Z,5.50
2017-11-29T21:41:19.438Z,5.50
2017-11-29T21:43:47.693Z,5.40
2017-11-29T21:46:15.216Z,5.40
2017-11-29T21:48:42.692Z,5.40
2017-11-29T21:51:10.182Z,5.40
2017-11-29T21:53:38.424Z,5.40
2017-11-29T21:56:05.928Z,5.40
2017-11-29T21:58:33.475Z,5.50
2017-11-29T22:01:01.838Z,5.60
2017-11-29T22:03:29.398Z,5.60
2017-11-29T22:05:57.051Z,5.60
2017-11-29T22:08:24.519Z,5.70
2017-11-29T22:10:52.804Z,5.70
2017-11-29T22:13:20.280Z,5.70
2017-11-29T22:15:47.761Z,5.60
2017-11-29T22:18:15.223Z,5.60
2017-11-29T22:20:42.679Z,5.60
2017-11-29T22:23:10.808Z,5.60
2017-11-29T22:25:38.421Z,5.60
2017-11-29T22:28:06.204Z,5.60
2017-11-29T22:30:33.710Z,5.70
2017-11-29T22:33:01.258Z,5.70
2017-11-29T22:35:28.780Z,5.70
2017-11-29T22:37:57.167Z,5.70
2017-11-29T22:40:25.558Z,5.70
2017-11-29T22:42:53.788Z,5.60
2017-11-29T22:45:21.348Z,5.60
2017-11-29T22:47:49.624Z,5.60
2017-11-29T22:50:19.021Z,5.60
2017-11-29T22:52:46.635Z,5.50
2017-11-29T22:55:15.106Z,5.60
2017-11-29T22:57:44.849Z,5.60
2017-11-29T23:00:12.398Z,5.60
2017-11-29T23:02:43.538Z,5.60
2017-11-29T23:05:11.100Z,5.60
2017-11-29T23:07:38.734Z,5.60
2017-11-29T23:10:06.257Z,5.60
2017-11-29T23:12:33.879Z,5.60
2017-11-29T23:15:01.497Z,5.70
2017-11-29T23:17:29.001Z,5.70
2017-11-29T23:19:56.790Z,5.60
2017-11-29T23:22:24.359Z,5.60
2017-11-29T23:24:52.042Z,5.60
2017-11-29T23:27:20.559Z,5.60
2017-11-29T23:29:48.221Z,5.50
2017-11-29T23:32:17.474Z,5.50
2017-11-29T23:34:45.162Z,5.50
2017-11-29T23:37:12.824Z,5.60
2017-11-29T23:39:40.597Z,5.60
2017-11-29T23:42:08.307Z,5.60
2017-11-29T23:44:35.928Z,5.50
2017-11-29T23:47:03.647Z,5.50
2017-11-29T23:49:36.291Z,5.40
2017-11-29T23:52:04.374Z,5.40
2017-11-29T23:54:32.159Z,5.40
2017-11-29T23:56:59.779Z,5.40
2017-11-29T23:59:27.327Z,5.40
